sensor_id;sensor_type;location;lat;lon;timestamp;temperature;humidity
10903;DHT22;5504;47.312;11.060;2022-11-11T00:00:29;6.50;94.60
10903;DHT22;5504;47.312;11.060;2022-11-11T00:02:55;6.60;94.80
10903;DHT22;5504;47.312;11.060;2022-11-11T00:05:22;6.60;94.40
10903;DHT22;5504;47.312;11.060;2022-11-11T00:07:47;6.60;94.30
10903;DHT22;5504;47.312;11.060;2022-11-11T00:10:13;6.60;94.30
10903;DHT22;5504;47.312;11.060;2022-11-11T00:12:39;6.40;94.10
10903;DHT22;5504;47.312;11.060;2022-11-11T00:15:05;6.50;94.40
10903;DHT22;5504;47.312;11.060;2022-11-11T00:17:32;6.50;94.40
10903;DHT22;5504;47.312;11.060;2022-11-11T00:20:17;6.50;94.40
10903;DHT22;5504;47.312;11.060;2022-11-11T00:23:01;6.40;94.50
10903;DHT22;5504;47.312;11.060;2022-11-11T00:25:45;6.40;94.60
10903;DHT22;5504;47.312;11.060;2022-11-11T00:28:11;6.50;94.60
10903;DHT22;5504;47.312;11.060;2022-11-11T00:30:36;6.40;94.40
10903;DHT22;5504;47.312;11.060;2022-11-11T00:33:02;6.40;94.70
10903;DHT22;5504;47.312;11.060;2022-11-11T00:35:28;6.40;94.80
10903;DHT22;5504;47.312;11.060;2022-11-11T00:38:13;6.40;95.10
10903;DHT22;5504;47.312;11.060;2022-11-11T00:40:58;6.70;94.80
10903;DHT22;5504;47.312;11.060;2022-11-11T00:43:23;6.80;94.20
10903;DHT22;5504;47.312;11.060;2022-11-11T00:45:49;6.90;93.90
10903;DHT22;5504;47.312;11.060;2022-11-11T00:48:15;7.00;93.70
10903;DHT22;5504;47.312;11.060;2022-11-11T00:50:59;7.00;93.60
10903;DHT22;5504;47.312;11.060;2022-11-11T00:53:27;7.00;93.50
10903;DHT22;5504;47.312;11.060;2022-11-11T00:55:54;6.90;93.50
10903;DHT22;5504;47.312;11.060;2022-11-11T00:58:20;6.70;93.70
10903;DHT22;5504;47.312;11.060;2022-11-11T01:00:47;6.60;93.90
10903;DHT22;5504;47.312;11.060;2022-11-11T01:03:15;6.50;94.10
10903;DHT22;5504;47.312;11.060;2022-11-11T01:05:41;6.70;94.50
10903;DHT22;5504;47.312;11.060;2022-11-11T01:08:06;6.80;94.50
10903;DHT22;5504;47.312;11.060;2022-11-11T01:10:32;6.80;94.20
10903;DHT22;5504;47.312;11.060;2022-11-11T01:13:20;6.90;94.10
10903;DHT22;5504;47.312;11.060;2022-11-11T01:15:51;6.90;93.90
10903;DHT22;5504;47.312;11.060;2022-11-11T01:18:21;7.00;93.80
10903;DHT22;5504;47.312;11.060;2022-11-11T01:20:47;7.10;93.60
10903;DHT22;5504;47.312;11.060;2022-11-11T01:23:13;7.10;93.40
10903;DHT22;5504;47.312;11.060;2022-11-11T01:25:40;7.10;93.10
10903;DHT22;5504;47.312;11.060;2022-11-11T01:28:07;7.30;92.90
10903;DHT22;5504;47.312;11.060;2022-11-11T01:30:34;7.20;92.80
10903;DHT22;5504;47.312;11.060;2022-11-11T01:33:00;7.10;92.80
10903;DHT22;5504;47.312;11.060;2022-11-11T01:35:27;7.20;92.90
10903;DHT22;5504;47.312;11.060;2022-11-11T01:37:53;7.10;92.70
10903;DHT22;5504;47.312;11.060;2022-11-11T01:40:19;7.20;92.50
10903;DHT22;5504;47.312;11.060;2022-11-11T01:45:54;7.00;92.30
10903;DHT22;5504;47.312;11.060;2022-11-11T01:48:41;6.80;92.50
10903;DHT22;5504;47.312;11.060;2022-11-11T01:54:05;6.70;92.60
10903;DHT22;5504;47.312;11.060;2022-11-11T01:56:32;6.70;92.60
10903;DHT22;5504;47.312;11.060;2022-11-11T01:59:02;6.50;92.30
10903;DHT22;5504;47.312;11.060;2022-11-11T02:01:30;6.30;92.30
10903;DHT22;5504;47.312;11.060;2022-11-11T02:03:57;6.40;92.70
10903;DHT22;5504;47.312;11.060;2022-11-11T02:06:43;6.40;92.90
10903;DHT22;5504;47.312;11.060;2022-11-11T02:09:10;6.30;92.80
10903;DHT22;5504;47.312;11.060;2022-11-11T02:11:36;6.30;92.90
10903;DHT22;5504;47.312;11.060;2022-11-11T02:14:21;6.10;92.60
10903;DHT22;5504;47.312;11.060;2022-11-11T02:17:08;6.00;93.20
10903;DHT22;5504;47.312;11.060;2022-11-11T02:19:50;5.80;93.20
10903;DHT22;5504;47.312;11.060;2022-11-11T02:24:53;5.70;93.60
10903;DHT22;5504;47.312;11.060;2022-11-11T02:27:20;5.60;93.60
10903;DHT22;5504;47.312;11.060;2022-11-11T02:29:49;5.70;93.60
10903;DHT22;5504;47.312;11.060;2022-11-11T02:32:15;5.80;93.20
10903;DHT22;5504;47.312;11.060;2022-11-11T02:34:41;5.60;92.90
10903;DHT22;5504;47.312;11.060;2022-11-11T02:37:07;5.60;93.00
10903;DHT22;5504;47.312;11.060;2022-11-11T02:39:39;5.60;93.10
10903;DHT22;5504;47.312;11.060;2022-11-11T02:42:06;5.40;92.90
10903;DHT22;5504;47.312;11.060;2022-11-11T02:44:35;5.30;93.50
10903;DHT22;5504;47.312;11.060;2022-11-11T02:47:04;5.30;93.60
10903;DHT22;5504;47.312;11.060;2022-11-11T02:49:30;5.30;93.40
10903;DHT22;5504;47.312;11.060;2022-11-11T02:51:55;5.20;93.50
10903;DHT22;5504;47.312;11.060;2022-11-11T02:54:21;5.20;93.50
10903;DHT22;5504;47.312;11.060;2022-11-11T02:56:47;5.30;93.50
10903;DHT22;5504;47.312;11.060;2022-11-11T02:59:32;5.20;93.30
10903;DHT22;5504;47.312;11.060;2022-11-11T03:01:57;5.10;93.30
10903;DHT22;5504;47.312;11.060;2022-11-11T03:04:23;5.00;93.50
10903;DHT22;5504;47.312;11.060;2022-11-11T03:06:49;4.90;93.60
10903;DHT22;5504;47.312;11.060;2022-11-11T03:09:15;4.90;93.90
10903;DHT22;5504;47.312;11.060;2022-11-11T03:11:41;5.10;94.10
10903;DHT22;5504;47.312;11.060;2022-11-11T03:14:06;5.00;93.70
10903;DHT22;5504;47.312;11.060;2022-11-11T03:16:33;5.10;93.40
10903;DHT22;5504;47.312;11.060;2022-11-11T03:19:18;5.20;93.10
10903;DHT22;5504;47.312;11.060;2022-11-11T03:21:44;5.00;93.00
10903;DHT22;5504;47.312;11.060;2022-11-11T03:24:09;4.80;93.20
10903;DHT22;5504;47.312;11.060;2022-11-11T03:26:35;4.90;93.50
10903;DHT22;5504;47.312;11.060;2022-11-11T03:29:01;4.90;93.60
10903;DHT22;5504;47.312;11.060;2022-11-11T03:31:27;4.90;93.50
10903;DHT22;5504;47.312;11.060;2022-11-11T03:33:53;4.70;93.40
10903;DHT22;5504;47.312;11.060;2022-11-11T03:36:18;5.00;93.40
10903;DHT22;5504;47.312;11.060;2022-11-11T03:38:44;5.10;93.20
10903;DHT22;5504;47.312;11.060;2022-11-11T03:41:10;5.10;93.10
10903;DHT22;5504;47.312;11.060;2022-11-11T03:43:35;5.10;93.00
10903;DHT22;5504;47.312;11.060;2022-11-11T03:46:03;5.00;92.80
10903;DHT22;5504;47.312;11.060;2022-11-11T03:48:32;4.80;93.10
10903;DHT22;5504;47.312;11.060;2022-11-11T03:50:58;4.60;93.60
10903;DHT22;5504;47.312;11.060;2022-11-11T03:53:23;4.60;94.10
10903;DHT22;5504;47.312;11.060;2022-11-11T03:55:50;4.50;94.00
10903;DHT22;5504;47.312;11.060;2022-11-11T03:58:16;4.60;94.10
10903;DHT22;5504;47.312;11.060;2022-11-11T04:00:42;4.60;94.10
10903;DHT22;5504;47.312;11.060;2022-11-11T04:03:13;4.60;94.00
10903;DHT22;5504;47.312;11.060;2022-11-11T04:05:58;4.70;94.20
10903;DHT22;5504;47.312;11.060;2022-11-11T04:08:47;4.70;94.00
10903;DHT22;5504;47.312;11.060;2022-11-11T04:11:41;4.70;93.70
10903;DHT22;5504;47.312;11.060;2022-11-11T04:14:10;4.70;93.70
10903;DHT22;5504;47.312;11.060;2022-11-11T04:16:54;4.70;93.50
10903;DHT22;5504;47.312;11.060;2022-11-11T04:19:20;4.50;93.90
10903;DHT22;5504;47.312;11.060;2022-11-11T04:22:04;4.50;94.10
10903;DHT22;5504;47.312;11.060;2022-11-11T04:24:30;4.50;94.20
10903;DHT22;5504;47.312;11.060;2022-11-11T04:27:16;4.40;93.90
10903;DHT22;5504;47.312;11.060;2022-11-11T04:29:42;4.40;94.00
10903;DHT22;5504;47.312;11.060;2022-11-11T04:32:10;4.40;94.20
10903;DHT22;5504;47.312;11.060;2022-11-11T04:34:56;4.40;94.30
10903;DHT22;5504;47.312;11.060;2022-11-11T04:37:23;4.60;94.00
10903;DHT22;5504;47.312;11.060;2022-11-11T04:39:50;4.60;93.70
10903;DHT22;5504;47.312;11.060;2022-11-11T04:42:34;4.60;93.60
10903;DHT22;5504;47.312;11.060;2022-11-11T04:45:00;4.50;93.60
10903;DHT22;5504;47.312;11.060;2022-11-11T04:50:33;4.40;93.50
10903;DHT22;5504;47.312;11.060;2022-11-11T04:53:00;4.30;93.70
10903;DHT22;5504;47.312;11.060;2022-11-11T04:55:25;4.10;93.70
10903;DHT22;5504;47.312;11.060;2022-11-11T04:58:10;4.20;93.90
10903;DHT22;5504;47.312;11.060;2022-11-11T05:00:37;4.40;94.00
10903;DHT22;5504;47.312;11.060;2022-11-11T05:03:03;4.50;93.70
10903;DHT22;5504;47.312;11.060;2022-11-11T05:05:45;4.40;93.60
10903;DHT22;5504;47.312;11.060;2022-11-11T05:08:30;4.40;93.60
10903;DHT22;5504;47.312;11.060;2022-11-11T05:11:15;4.30;93.40
10903;DHT22;5504;47.312;11.060;2022-11-11T05:13:41;4.20;93.70
10903;DHT22;5504;47.312;11.060;2022-11-11T05:16:28;4.20;93.70
10903;DHT22;5504;47.312;11.060;2022-11-11T05:19:14;4.10;93.80
10903;DHT22;5504;47.312;11.060;2022-11-11T05:24:33;4.40;93.80
10903;DHT22;5504;47.312;11.060;2022-11-11T05:27:18;4.40;93.60
10903;DHT22;5504;47.312;11.060;2022-11-11T05:29:45;4.30;93.30
10903;DHT22;5504;47.312;11.060;2022-11-11T05:32:15;4.10;93.40
10903;DHT22;5504;47.312;11.060;2022-11-11T05:34:41;4.00;93.70
10903;DHT22;5504;47.312;11.060;2022-11-11T05:37:07;4.00;93.90
10903;DHT22;5504;47.312;11.060;2022-11-11T05:39:33;3.90;94.00
10903;DHT22;5504;47.312;11.060;2022-11-11T05:41:58;4.10;94.20
10903;DHT22;5504;47.312;11.060;2022-11-11T05:44:24;4.10;93.90
10903;DHT22;5504;47.312;11.060;2022-11-11T05:46:50;4.10;93.80
10903;DHT22;5504;47.312;11.060;2022-11-11T05:49:15;4.10;93.70
10903;DHT22;5504;47.312;11.060;2022-11-11T05:51:44;4.20;93.70
10903;DHT22;5504;47.312;11.060;2022-11-11T05:54:10;4.10;93.50
10903;DHT22;5504;47.312;11.060;2022-11-11T05:56:36;4.00;93.50
10903;DHT22;5504;47.312;11.060;2022-11-11T05:59:02;3.90;93.70
10903;DHT22;5504;47.312;11.060;2022-11-11T06:01:28;3.90;94.00
10903;DHT22;5504;47.312;11.060;2022-11-11T06:03:53;4.00;94.00
10903;DHT22;5504;47.312;11.060;2022-11-11T06:06:19;4.00;93.80
10903;DHT22;5504;47.312;11.060;2022-11-11T06:08:45;4.00;94.00
10903;DHT22;5504;47.312;11.060;2022-11-11T06:11:11;4.10;93.80
10903;DHT22;5504;47.312;11.060;2022-11-11T06:13:36;4.10;93.60
10903;DHT22;5504;47.312;11.060;2022-11-11T06:16:03;3.90;93.50
10903;DHT22;5504;47.312;11.060;2022-11-11T06:18:29;3.90;93.80
10903;DHT22;5504;47.312;11.060;2022-11-11T06:20:55;3.90;93.90
10903;DHT22;5504;47.312;11.060;2022-11-11T06:23:22;3.80;93.90
10903;DHT22;5504;47.312;11.060;2022-11-11T06:25:48;3.70;94.30
10903;DHT22;5504;47.312;11.060;2022-11-11T06:28:33;3.80;94.60
10903;DHT22;5504;47.312;11.060;2022-11-11T06:30:59;3.90;94.70
10903;DHT22;5504;47.312;11.060;2022-11-11T06:33:25;3.90;94.50
10903;DHT22;5504;47.312;11.060;2022-11-11T06:35:51;4.10;94.50
10903;DHT22;5504;47.312;11.060;2022-11-11T06:38:17;4.30;94.10
10903;DHT22;5504;47.312;11.060;2022-11-11T06:40:43;4.50;93.80
10903;DHT22;5504;47.312;11.060;2022-11-11T06:43:09;4.60;93.80
10903;DHT22;5504;47.312;11.060;2022-11-11T06:45:35;4.90;93.70
10903;DHT22;5504;47.312;11.060;2022-11-11T06:48:02;5.10;93.50
10903;DHT22;5504;47.312;11.060;2022-11-11T06:50:28;5.00;92.90
10903;DHT22;5504;47.312;11.060;2022-11-11T06:52:54;4.90;93.00
10903;DHT22;5504;47.312;11.060;2022-11-11T06:55:21;4.90;93.20
10903;DHT22;5504;47.312;11.060;2022-11-11T06:57:46;4.90;93.20
10903;DHT22;5504;47.312;11.060;2022-11-11T07:00:13;4.90;93.30
10903;DHT22;5504;47.312;11.060;2022-11-11T07:02:38;5.00;93.50
10903;DHT22;5504;47.312;11.060;2022-11-11T07:05:05;5.00;93.30
10903;DHT22;5504;47.312;11.060;2022-11-11T07:07:31;5.00;93.30
10903;DHT22;5504;47.312;11.060;2022-11-11T07:09:56;5.10;93.20
10903;DHT22;5504;47.312;11.060;2022-11-11T07:12:22;5.20;92.80
10903;DHT22;5504;47.312;11.060;2022-11-11T07:14:48;5.30;92.60
10903;DHT22;5504;47.312;11.060;2022-11-11T07:17:14;5.20;92.50
10903;DHT22;5504;47.312;11.060;2022-11-11T07:19:39;5.20;92.60
10903;DHT22;5504;47.312;11.060;2022-11-11T07:22:05;5.10;93.30
10903;DHT22;5504;47.312;11.060;2022-11-11T07:24:31;5.40;94.30
10903;DHT22;5504;47.312;11.060;2022-11-11T07:26:57;5.90;94.10
10903;DHT22;5504;47.312;11.060;2022-11-11T07:29:24;6.60;93.80
10903;DHT22;5504;47.312;11.060;2022-11-11T07:31:49;7.00;92.40
10903;DHT22;5504;47.312;11.060;2022-11-11T07:34:15;7.40;91.60
10903;DHT22;5504;47.312;11.060;2022-11-11T07:36:41;7.50;90.70
10903;DHT22;5504;47.312;11.060;2022-11-11T07:39:07;8.00;91.00
10903;DHT22;5504;47.312;11.060;2022-11-11T07:41:33;8.40;90.60
10903;DHT22;5504;47.312;11.060;2022-11-11T07:43:58;8.70;90.20
10903;DHT22;5504;47.312;11.060;2022-11-11T07:46:24;8.80;89.70
10903;DHT22;5504;47.312;11.060;2022-11-11T07:48:50;8.80;88.90
10903;DHT22;5504;47.312;11.060;2022-11-11T07:51:16;9.00;89.10
10903;DHT22;5504;47.312;11.060;2022-11-11T07:53:41;9.00;88.50
10903;DHT22;5504;47.312;11.060;2022-11-11T07:56:08;9.10;89.50
10903;DHT22;5504;47.312;11.060;2022-11-11T07:58:34;9.30;90.00
10903;DHT22;5504;47.312;11.060;2022-11-11T08:00:59;9.80;89.50
10903;DHT22;5504;47.312;11.060;2022-11-11T08:03:25;9.90;88.40
10903;DHT22;5504;47.312;11.060;2022-11-11T08:05:51;10.00;87.70
10903;DHT22;5504;47.312;11.060;2022-11-11T08:08:17;10.00;87.60
10903;DHT22;5504;47.312;11.060;2022-11-11T08:10:42;10.10;87.30
10903;DHT22;5504;47.312;11.060;2022-11-11T08:13:11;10.00;86.80
10903;DHT22;5504;47.312;11.060;2022-11-11T08:15:55;10.20;88.20
10903;DHT22;5504;47.312;11.060;2022-11-11T08:18:21;10.00;86.70
10903;DHT22;5504;47.312;11.060;2022-11-11T08:20:46;10.10;87.50
10903;DHT22;5504;47.312;11.060;2022-11-11T08:23:12;10.30;87.60
10903;DHT22;5504;47.312;11.060;2022-11-11T08:25:41;9.80;87.00
10903;DHT22;5504;47.312;11.060;2022-11-11T08:28:07;9.50;88.00
10903;DHT22;5504;47.312;11.060;2022-11-11T08:30:32;10.00;89.70
10903;DHT22;5504;47.312;11.060;2022-11-11T08:33:04;10.30;88.10
10903;DHT22;5504;47.312;11.060;2022-11-11T08:35:31;10.30;86.50
10903;DHT22;5504;47.312;11.060;2022-11-11T08:38:00;10.00;87.20
10903;DHT22;5504;47.312;11.060;2022-11-11T08:40:26;10.00;88.20
10903;DHT22;5504;47.312;11.060;2022-11-11T08:42:55;10.10;87.80
10903;DHT22;5504;47.312;11.060;2022-11-11T08:45:22;10.40;87.80
10903;DHT22;5504;47.312;11.060;2022-11-11T08:47:47;10.40;86.70
10903;DHT22;5504;47.312;11.060;2022-11-11T08:50:13;10.40;87.00
10903;DHT22;5504;47.312;11.060;2022-11-11T08:52:48;10.40;87.70
10903;DHT22;5504;47.312;11.060;2022-11-11T08:55:14;10.30;85.70
10903;DHT22;5504;47.312;11.060;2022-11-11T08:57:41;9.90;86.50
10903;DHT22;5504;47.312;11.060;2022-11-11T09:00:07;9.90;89.40
10903;DHT22;5504;47.312;11.060;2022-11-11T09:02:33;10.40;88.90
10903;DHT22;5504;47.312;11.060;2022-11-11T09:04:59;10.60;88.10
10903;DHT22;5504;47.312;11.060;2022-11-11T09:07:25;10.50;86.10
10903;DHT22;5504;47.312;11.060;2022-11-11T09:09:51;10.20;86.20
10903;DHT22;5504;47.312;11.060;2022-11-11T09:12:17;10.40;87.70
10903;DHT22;5504;47.312;11.060;2022-11-11T09:14:42;10.50;86.10
10903;DHT22;5504;47.312;11.060;2022-11-11T09:17:08;10.80;87.10
10903;DHT22;5504;47.312;11.060;2022-11-11T09:19:34;10.90;84.60
10903;DHT22;5504;47.312;11.060;2022-11-11T09:22:00;11.20;85.40
10903;DHT22;5504;47.312;11.060;2022-11-11T09:24:25;11.60;85.00
10903;DHT22;5504;47.312;11.060;2022-11-11T09:26:51;11.80;84.10
10903;DHT22;5504;47.312;11.060;2022-11-11T09:29:17;11.80;83.00
10903;DHT22;5504;47.312;11.060;2022-11-11T09:31:44;11.60;82.80
10903;DHT22;5504;47.312;11.060;2022-11-11T09:34:10;11.70;82.40
10903;DHT22;5504;47.312;11.060;2022-11-11T09:36:36;11.30;82.60
10903;DHT22;5504;47.312;11.060;2022-11-11T09:39:01;10.80;83.50
10903;DHT22;5504;47.312;11.060;2022-11-11T09:44:00;10.80;86.80
10903;DHT22;5504;47.312;11.060;2022-11-11T09:52:27;10.50;83.90
10903;DHT22;5504;47.312;11.060;2022-11-11T09:55:01;11.00;85.20
10903;DHT22;5504;47.312;11.060;2022-11-11T09:57:52;10.90;84.90
10903;DHT22;5504;47.312;11.060;2022-11-11T10:00:30;11.60;84.50
10903;DHT22;5504;47.312;11.060;2022-11-11T10:06:00;11.80;81.40
10903;DHT22;5504;47.312;11.060;2022-11-11T10:09:01;12.90;82.20
10903;DHT22;5504;47.312;11.060;2022-11-11T10:14:15;12.50;80.70
10903;DHT22;5504;47.312;11.060;2022-11-11T10:20:00;13.20;79.50
10903;DHT22;5504;47.312;11.060;2022-11-11T10:22:32;14.10;76.30
10903;DHT22;5504;47.312;11.060;2022-11-11T10:27:39;13.90;75.90
10903;DHT22;5504;47.312;11.060;2022-11-11T10:30:32;13.70;74.20
10903;DHT22;5504;47.312;11.060;2022-11-11T10:33:18;14.20;73.80
10903;DHT22;5504;47.312;11.060;2022-11-11T10:35:44;14.70;72.80
10903;DHT22;5504;47.312;11.060;2022-11-11T10:38:22;14.70;72.60
10903;DHT22;5504;47.312;11.060;2022-11-11T10:40:56;14.80;75.20
10903;DHT22;5504;47.312;11.060;2022-11-11T10:43:25;15.00;72.60
10903;DHT22;5504;47.312;11.060;2022-11-11T10:46:49;15.30;72.10
10903;DHT22;5504;47.312;11.060;2022-11-11T10:49:15;15.40;70.40
10903;DHT22;5504;47.312;11.060;2022-11-11T10:51:46;15.30;68.60
10903;DHT22;5504;47.312;11.060;2022-11-11T10:54:35;16.30;70.70
10903;DHT22;5504;47.312;11.060;2022-11-11T10:57:20;16.20;68.30
10903;DHT22;5504;47.312;11.060;2022-11-11T11:00:12;15.20;66.50
10903;DHT22;5504;47.312;11.060;2022-11-11T11:07:59;15.10;67.50
10903;DHT22;5504;47.312;11.060;2022-11-11T11:10:57;15.30;69.60
10903;DHT22;5504;47.312;11.060;2022-11-11T11:13:56;15.80;68.40
10903;DHT22;5504;47.312;11.060;2022-11-11T11:16:33;16.20;68.10
10903;DHT22;5504;47.312;11.060;2022-11-11T11:19:19;16.20;67.60
10903;DHT22;5504;47.312;11.060;2022-11-11T11:24:26;16.40;65.10
10903;DHT22;5504;47.312;11.060;2022-11-11T11:26:57;15.90;65.20
10903;DHT22;5504;47.312;11.060;2022-11-11T11:29:43;15.60;65.00
10903;DHT22;5504;47.312;11.060;2022-11-11T11:32:26;14.60;66.70
10903;DHT22;5504;47.312;11.060;2022-11-11T11:34:54;14.30;70.20
10903;DHT22;5504;47.312;11.060;2022-11-11T11:37:24;14.50;71.10
10903;DHT22;5504;47.312;11.060;2022-11-11T11:40:04;14.50;68.80
10903;DHT22;5504;47.312;11.060;2022-11-11T11:42:37;14.30;69.10
10903;DHT22;5504;47.312;11.060;2022-11-11T11:45:28;14.30;70.20
10903;DHT22;5504;47.312;11.060;2022-11-11T11:53:34;14.90;70.20
10903;DHT22;5504;47.312;11.060;2022-11-11T12:12:44;16.60;67.60
10903;DHT22;5504;47.312;11.060;2022-11-11T12:21:14;16.70;64.20
10903;DHT22;5504;47.312;11.060;2022-11-11T12:24:21;16.80;63.70
10903;DHT22;5504;47.312;11.060;2022-11-11T12:35:16;16.30;62.60
10903;DHT22;5504;47.312;11.060;2022-11-11T12:38:11;16.50;65.70
10903;DHT22;5504;47.312;11.060;2022-11-11T12:58:13;16.60;63.20
10903;DHT22;5504;47.312;11.060;2022-11-11T13:00:21;16.20;67.30
10903;DHT22;5504;47.312;11.060;2022-11-11T13:16:45;16.50;68.60
10903;DHT22;5504;47.312;11.060;2022-11-11T13:19:26;16.50;68.80
10903;DHT22;5504;47.312;11.060;2022-11-11T13:22:10;16.20;68.80
10903;DHT22;5504;47.312;11.060;2022-11-11T13:24:38;16.30;68.50
10903;DHT22;5504;47.312;11.060;2022-11-11T13:27:11;16.10;68.40
10903;DHT22;5504;47.312;11.060;2022-11-11T13:32:05;16.20;73.00
10903;DHT22;5504;47.312;11.060;2022-11-11T13:34:34;16.10;75.80
10903;DHT22;5504;47.312;11.060;2022-11-11T13:37:03;16.10;76.10
10903;DHT22;5504;47.312;11.060;2022-11-11T13:39:43;15.90;76.30
10903;DHT22;5504;47.312;11.060;2022-11-11T13:42:12;16.00;76.80
10903;DHT22;5504;47.312;11.060;2022-11-11T13:44:55;16.00;77.20
10903;DHT22;5504;47.312;11.060;2022-11-11T13:47:32;16.20;76.30
10903;DHT22;5504;47.312;11.060;2022-11-11T13:50:23;16.30;76.60
10903;DHT22;5504;47.312;11.060;2022-11-11T13:53:15;16.40;76.60
10903;DHT22;5504;47.312;11.060;2022-11-11T13:55:51;16.70;76.00
10903;DHT22;5504;47.312;11.060;2022-11-11T13:58:28;16.60;72.40
10903;DHT22;5504;47.312;11.060;2022-11-11T14:01:02;16.50;68.30
10903;DHT22;5504;47.312;11.060;2022-11-11T14:03:34;16.40;70.50
10903;DHT22;5504;47.312;11.060;2022-11-11T14:13:53;15.10;68.60
10903;DHT22;5504;47.312;11.060;2022-11-11T14:21:53;15.00;75.70
10903;DHT22;5504;47.312;11.060;2022-11-11T14:27:13;14.90;77.10
10903;DHT22;5504;47.312;11.060;2022-11-11T14:29:50;14.80;77.80
10903;DHT22;5504;47.312;11.060;2022-11-11T14:47:38;13.80;80.30
10903;DHT22;5504;47.312;11.060;2022-11-11T14:50:06;13.70;81.10
10903;DHT22;5504;47.312;11.060;2022-11-11T14:52:48;13.40;81.30
10903;DHT22;5504;47.312;11.060;2022-11-11T14:57:47;13.00;82.50
10903;DHT22;5504;47.312;11.060;2022-11-11T15:00:17;12.80;83.00
10903;DHT22;5504;47.312;11.060;2022-11-11T15:06:10;12.40;84.80
10903;DHT22;5504;47.312;11.060;2022-11-11T15:08:54;11.90;85.40
10903;DHT22;5504;47.312;11.060;2022-11-11T15:37:01;10.70;90.50
10903;DHT22;5504;47.312;11.060;2022-11-11T15:39:43;10.80;90.20
10903;DHT22;5504;47.312;11.060;2022-11-11T15:42:21;10.80;89.80
10903;DHT22;5504;47.312;11.060;2022-11-11T15:44:50;10.70;89.70
10903;DHT22;5504;47.312;11.060;2022-11-11T15:47:18;10.50;89.90
10903;DHT22;5504;47.312;11.060;2022-11-11T15:49:46;10.50;90.20
10903;DHT22;5504;47.312;11.060;2022-11-11T15:54:48;10.10;90.20
10903;DHT22;5504;47.312;11.060;2022-11-11T15:57:27;9.80;90.30
10903;DHT22;5504;47.312;11.060;2022-11-11T15:59:58;9.80;90.70
10903;DHT22;5504;47.312;11.060;2022-11-11T16:02:33;9.90;90.60
10903;DHT22;5504;47.312;11.060;2022-11-11T16:05:03;9.80;90.50
10903;DHT22;5504;47.312;11.060;2022-11-11T16:07:37;9.80;90.70
10903;DHT22;5504;47.312;11.060;2022-11-11T16:10:14;9.60;90.90
10903;DHT22;5504;47.312;11.060;2022-11-11T16:12:52;9.60;90.90
10903;DHT22;5504;47.312;11.060;2022-11-11T16:15:43;9.40;90.90
10903;DHT22;5504;47.312;11.060;2022-11-11T16:18:19;9.40;91.10
10903;DHT22;5504;47.312;11.060;2022-11-11T16:23:18;9.20;91.40
10903;DHT22;5504;47.312;11.060;2022-11-11T16:25:46;9.10;91.40
10903;DHT22;5504;47.312;11.060;2022-11-11T16:28:12;9.00;91.50
10903;DHT22;5504;47.312;11.060;2022-11-11T16:30:38;8.90;91.50
10903;DHT22;5504;47.312;11.060;2022-11-11T16:33:04;8.90;91.70
10903;DHT22;5504;47.312;11.060;2022-11-11T16:37:55;8.90;91.90
10903;DHT22;5504;47.312;11.060;2022-11-11T16:45:57;8.60;91.90
10903;DHT22;5504;47.312;11.060;2022-11-11T16:54:07;8.40;92.30
10903;DHT22;5504;47.312;11.060;2022-11-11T16:56:35;8.30;92.50
10903;DHT22;5504;47.312;11.060;2022-11-11T16:59:07;8.30;92.50
10903;DHT22;5504;47.312;11.060;2022-11-11T17:01:44;8.20;92.50
10903;DHT22;5504;47.312;11.060;2022-11-11T17:04:11;8.40;92.60
10903;DHT22;5504;47.312;11.060;2022-11-11T17:06:57;8.50;92.40
10903;DHT22;5504;47.312;11.060;2022-11-11T17:09:37;8.60;92.20
10903;DHT22;5504;47.312;11.060;2022-11-11T17:12:04;8.50;91.80
10903;DHT22;5504;47.312;11.060;2022-11-11T17:14:36;8.30;91.80
10903;DHT22;5504;47.312;11.060;2022-11-11T17:17:02;8.10;92.10
10903;DHT22;5504;47.312;11.060;2022-11-11T17:19:30;8.00;92.40
10903;DHT22;5504;47.312;11.060;2022-11-11T17:22:08;7.90;92.40
10903;DHT22;5504;47.312;11.060;2022-11-11T17:24:35;7.90;92.60
10903;DHT22;5504;47.312;11.060;2022-11-11T17:27:01;7.90;92.60
10903;DHT22;5504;47.312;11.060;2022-11-11T17:29:27;7.90;92.60
10903;DHT22;5504;47.312;11.060;2022-11-11T17:31:52;7.90;92.50
10903;DHT22;5504;47.312;11.060;2022-11-11T17:34:18;7.90;92.60
10903;DHT22;5504;47.312;11.060;2022-11-11T17:36:44;7.80;92.20
10903;DHT22;5504;47.312;11.060;2022-11-11T17:39:09;7.80;92.30
10903;DHT22;5504;47.312;11.060;2022-11-11T17:41:35;7.70;92.30
10903;DHT22;5504;47.312;11.060;2022-11-11T17:44:01;7.80;92.60
10903;DHT22;5504;47.312;11.060;2022-11-11T17:46:26;7.70;92.60
10903;DHT22;5504;47.312;11.060;2022-11-11T17:48:53;7.50;92.50
10903;DHT22;5504;47.312;11.060;2022-11-11T17:51:22;7.30;92.70
10903;DHT22;5504;47.312;11.060;2022-11-11T17:53:51;7.30;92.90
10903;DHT22;5504;47.312;11.060;2022-11-11T17:56:18;7.30;93.00
10903;DHT22;5504;47.312;11.060;2022-11-11T17:58:44;7.20;92.90
10903;DHT22;5504;47.312;11.060;2022-11-11T18:01:12;7.20;93.20
10903;DHT22;5504;47.312;11.060;2022-11-11T18:03:39;7.20;93.40
10903;DHT22;5504;47.312;11.060;2022-11-11T18:06:06;7.30;93.40
10903;DHT22;5504;47.312;11.060;2022-11-11T18:08:32;7.30;93.20
10903;DHT22;5504;47.312;11.060;2022-11-11T18:10:59;7.30;93.00
10903;DHT22;5504;47.312;11.060;2022-11-11T18:13:25;7.40;92.90
10903;DHT22;5504;47.312;11.060;2022-11-11T18:15:51;7.30;92.70
10903;DHT22;5504;47.312;11.060;2022-11-11T18:18:17;7.10;92.80
10903;DHT22;5504;47.312;11.060;2022-11-11T18:20:43;7.00;93.10
10903;DHT22;5504;47.312;11.060;2022-11-11T18:23:08;7.00;93.00
10903;DHT22;5504;47.312;11.060;2022-11-11T18:25:34;6.80;93.00
10903;DHT22;5504;47.312;11.060;2022-11-11T18:28:00;6.80;93.60
10903;DHT22;5504;47.312;11.060;2022-11-11T18:30:25;6.80;93.70
10903;DHT22;5504;47.312;11.060;2022-11-11T18:32:51;6.90;93.80
10903;DHT22;5504;47.312;11.060;2022-11-11T18:35:17;6.90;93.60
10903;DHT22;5504;47.312;11.060;2022-11-11T18:37:43;7.10;93.60
10903;DHT22;5504;47.312;11.060;2022-11-11T18:40:09;7.00;93.20
10903;DHT22;5504;47.312;11.060;2022-11-11T18:42:35;6.90;93.60
10903;DHT22;5504;47.312;11.060;2022-11-11T18:45:01;6.90;93.20
10903;DHT22;5504;47.312;11.060;2022-11-11T18:47:26;6.80;93.20
10903;DHT22;5504;47.312;11.060;2022-11-11T18:49:52;6.80;93.60
10903;DHT22;5504;47.312;11.060;2022-11-11T18:52:18;6.90;93.70
10903;DHT22;5504;47.312;11.060;2022-11-11T18:54:43;6.90;93.30
10903;DHT22;5504;47.312;11.060;2022-11-11T18:57:09;6.80;93.20
10903;DHT22;5504;47.312;11.060;2022-11-11T18:59:35;6.80;93.40
10903;DHT22;5504;47.312;11.060;2022-11-11T19:02:00;6.70;93.40
10903;DHT22;5504;47.312;11.060;2022-11-11T19:04:26;6.60;93.40
10903;DHT22;5504;47.312;11.060;2022-11-11T19:06:52;6.50;93.50
10903;DHT22;5504;47.312;11.060;2022-11-11T19:09:18;6.60;93.70
10903;DHT22;5504;47.312;11.060;2022-11-11T19:11:44;6.70;93.60
10903;DHT22;5504;47.312;11.060;2022-11-11T19:14:12;6.70;93.60
10903;DHT22;5504;47.312;11.060;2022-11-11T19:16:38;6.60;93.10